createdAt,value
2023-01-07T00:00:08.365Z,0.00
2023-01-07T00:01:08.355Z,0.00
2023-01-07T00:02:08.382Z,0.00
2023-01-07T00:03:08.327Z,0.00
2023-01-07T00:04:08.408Z,0.00
2023-01-07T00:05:08.275Z,0.00
2023-01-07T00:06:08.275Z,0.00
2023-01-07T00:07:09.915Z,0.00
2023-01-07T00:08:08.276Z,0.00
2023-01-07T00:09:08.244Z,0.00
2023-01-07T00:10:08.248Z,0.00
2023-01-07T00:11:08.241Z,0.00
2023-01-07T00:12:08.253Z,0.00
2023-01-07T00:13:08.215Z,0.00
2023-01-07T00:14:08.199Z,0.00
2023-01-07T00:15:08.177Z,0.00
2023-01-07T00:16:08.264Z,0.00
2023-01-07T00:17:08.199Z,0.00
2023-01-07T00:18:08.173Z,0.00
2023-01-07T00:19:08.155Z,0.00
2023-01-07T00:20:08.137Z,0.00
2023-01-07T00:21:08.107Z,0.00
2023-01-07T00:22:08.130Z,0.00
2023-01-07T00:23:08.089Z,0.00
2023-01-07T00:24:08.111Z,0.00
2023-01-07T00:25:08.064Z,0.00
2023-01-07T00:26:08.072Z,0.00
2023-01-07T00:27:08.091Z,0.00
2023-01-07T00:28:08.051Z,0.00
2023-01-07T00:29:08.036Z,0.00
2023-01-07T00:30:08.005Z,0.00
2023-01-07T00:31:08.046Z,0.00
2023-01-07T00:32:08.048Z,0.00
2023-01-07T00:33:07.982Z,0.00
2023-01-07T00:34:07.974Z,0.00
2023-01-07T00:35:07.947Z,0.00
2023-01-07T00:36:07.938Z,0.00
2023-01-07T00:37:07.968Z,0.00
2023-01-07T00:38:07.935Z,0.00
2023-01-07T00:39:07.892Z,0.00
2023-01-07T00:40:07.933Z,0.00
2023-01-07T00:41:07.887Z,0.00
2023-01-07T00:42:07.923Z,0.00
2023-01-07T00:43:07.910Z,0.00
2023-01-07T00:44:07.881Z,0.00
2023-01-07T00:45:07.851Z,0.00
2023-01-07T00:46:07.835Z,0.00
2023-01-07T00:47:07.858Z,0.00
2023-01-07T00:48:07.841Z,0.00
2023-01-07T00:49:07.815Z,0.00
2023-01-07T00:50:07.899Z,0.00
2023-01-07T00:51:07.789Z,0.00
2023-01-07T00:52:07.765Z,0.00
2023-01-07T00:53:07.789Z,0.00
2023-01-07T00:54:07.763Z,0.00
2023-01-07T00:55:07.744Z,0.00
2023-01-07T00:56:07.719Z,0.00
2023-01-07T00:57:07.706Z,0.00
2023-01-07T00:58:07.825Z,0.00
2023-01-07T00:59:07.701Z,0.00
2023-01-07T01:00:07.684Z,0.00
2023-01-07T01:01:07.745Z,0.00
2023-01-07T01:02:07.829Z,0.00
2023-01-07T01:03:07.696Z,0.00
2023-01-07T01:04:07.655Z,0.00
2023-01-07T01:05:07.644Z,0.00
2023-01-07T01:06:07.600Z,0.00
2023-01-07T01:07:07.590Z,0.00
2023-01-07T01:08:07.616Z,0.00
2023-01-07T01:09:07.592Z,0.00
2023-01-07T01:10:07.576Z,0.00
2023-01-07T01:11:07.547Z,0.00
2023-01-07T01:12:07.550Z,0.00
2023-01-07T01:13:07.576Z,0.00
2023-01-07T01:14:07.544Z,0.00
2023-01-07T01:15:07.502Z,0.00
2023-01-07T01:16:07.527Z,0.00
2023-01-07T01:17:07.474Z,0.00
2023-01-07T01:18:07.517Z,0.00
2023-01-07T01:19:07.479Z,0.00
2023-01-07T01:20:07.442Z,0.00
2023-01-07T01:21:07.450Z,0.00
2023-01-07T01:22:07.438Z,0.00
2023-01-07T01:23:07.479Z,0.00
2023-01-07T01:24:07.418Z,0.00
2023-01-07T01:25:07.451Z,0.00
2023-01-07T01:26:07.393Z,0.00
2023-01-07T01:27:07.374Z,0.00
2023-01-07T01:28:07.381Z,0.00
2023-01-07T01:29:07.396Z,0.00
2023-01-07T01:30:07.360Z,0.00
2023-01-07T01:31:07.356Z,0.00
2023-01-07T01:32:07.326Z,0.00
2023-01-07T01:33:07.313Z,0.00
2023-01-07T01:34:07.334Z,0.00
2023-01-07T01:35:07.298Z,0.00
2023-01-07T01:36:07.265Z,0.00
2023-01-07T01:37:07.258Z,0.00
2023-01-07T01:38:07.238Z,0.00
2023-01-07T01:39:07.253Z,0.00
2023-01-07T01:40:07.236Z,0.00
2023-01-07T01:41:07.239Z,0.00
2023-01-07T01:42:07.223Z,0.00
2023-01-07T01:43:07.200Z,0.00
2023-01-07T01:44:07.212Z,0.00
2023-01-07T01:45:07.175Z,0.00
2023-01-07T01:46:07.159Z,0.00
2023-01-07T01:47:07.152Z,0.00
2023-01-07T01:48:07.137Z,0.00
2023-01-07T01:49:07.141Z,0.00
2023-01-07T01:50:07.110Z,0.00
2023-01-07T01:51:07.107Z,0.00
2023-01-07T01:52:07.112Z,0.00
2023-01-07T01:53:07.087Z,0.00
2023-01-07T01:54:07.103Z,0.00
2023-01-07T01:55:07.063Z,0.00
2023-01-07T01:56:07.070Z,0.00
2023-01-07T01:57:07.027Z,0.00
2023-01-07T01:58:07.030Z,0.00
2023-01-07T01:59:07.047Z,0.00
2023-01-07T02:00:07.015Z,0.00
2023-01-07T02:01:07.086Z,0.00
2023-01-07T02:02:07.067Z,0.00
2023-01-07T02:03:06.962Z,0.00
2023-01-07T02:04:07.014Z,0.00
2023-01-07T02:05:06.954Z,0.00
2023-01-07T02:06:06.937Z,0.00
2023-01-07T02:07:06.911Z,0.00
2023-01-07T02:08:06.891Z,0.00
2023-01-07T02:09:06.930Z,0.00
2023-01-07T02:10:06.925Z,0.00
2023-01-07T02:11:06.870Z,0.00
2023-01-07T02:12:06.861Z,0.00
2023-01-07T02:13:06.846Z,0.00
2023-01-07T02:14:06.893Z,0.00
2023-01-07T02:15:06.845Z,0.00
2023-01-07T02:16:06.869Z,0.00
2023-01-07T02:17:06.815Z,0.00
2023-01-07T02:18:06.808Z,0.00
2023-01-07T02:19:06.818Z,0.00
2023-01-07T02:20:06.789Z,0.00
2023-01-07T02:21:06.775Z,0.00
2023-01-07T02:22:06.757Z,0.00
2023-01-07T02:23:06.766Z,0.00
2023-01-07T02:24:06.768Z,0.00
2023-01-07T02:25:06.720Z,0.00
2023-01-07T02:26:06.725Z,0.00
2023-01-07T02:27:06.689Z,0.00
2023-01-07T02:28:06.696Z,0.00
2023-01-07T02:29:06.665Z,0.00
2023-01-07T02:30:06.710Z,0.00
2023-01-07T02:31:06.650Z,0.00
2023-01-07T02:32:06.647Z,0.00
2023-01-07T02:33:06.655Z,0.00
2023-01-07T02:34:06.615Z,0.00
2023-01-07T02:35:06.641Z,0.00
2023-01-07T02:36:06.582Z,0.00
2023-01-07T02:37:06.574Z,0.00
2023-01-07T02:38:06.567Z,0.00
2023-01-07T02:39:06.549Z,0.00
2023-01-07T02:40:06.601Z,0.00
2023-01-07T02:41:06.523Z,0.00
2023-01-07T02:42:06.539Z,0.00
2023-01-07T02:43:06.513Z,0.00
2023-01-07T02:44:06.523Z,0.00
2023-01-07T02:45:06.549Z,0.00
2023-01-07T02:46:06.539Z,0.00
2023-01-07T02:47:06.470Z,0.00
2023-01-07T02:48:06.464Z,0.00
2023-01-07T02:49:06.466Z,0.00
2023-01-07T02:50:06.487Z,0.00
2023-01-07T02:51:06.429Z,0.00
2023-01-07T02:52:06.443Z,0.00
2023-01-07T02:53:06.414Z,0.00
2023-01-07T02:54:06.396Z,0.00
2023-01-07T02:55:06.412Z,0.00
2023-01-07T02:56:06.380Z,0.00
2023-01-07T02:57:06.347Z,0.00
2023-01-07T02:58:06.364Z,0.00
2023-01-07T02:59:06.333Z,0.00
2023-01-07T03:00:06.361Z,0.00
2023-01-07T03:01:06.436Z,0.00
2023-01-07T03:02:06.353Z,0.00
2023-01-07T03:03:06.310Z,0.00
2023-01-07T03:04:06.292Z,0.00
2023-01-07T03:05:06.307Z,0.00
2023-01-07T03:06:06.260Z,0.00
2023-01-07T03:07:06.247Z,0.00
2023-01-07T03:08:06.212Z,0.00
2023-01-07T03:09:06.206Z,0.00
2023-01-07T03:10:06.276Z,0.00
2023-01-07T03:11:06.202Z,0.00
2023-01-07T03:12:06.200Z,0.00
2023-01-07T03:13:06.176Z,0.00
2023-01-07T03:14:06.180Z,0.00
2023-01-07T03:15:06.196Z,0.00
2023-01-07T03:16:06.208Z,0.00
2023-01-07T03:17:06.141Z,0.00
2023-01-07T03:18:06.143Z,0.00
2023-01-07T03:19:06.127Z,0.00
2023-01-07T03:20:06.154Z,0.00
2023-01-07T03:21:06.122Z,0.00
2023-01-07T03:22:06.066Z,0.00
2023-01-07T03:23:06.085Z,0.00
2023-01-07T03:24:06.060Z,0.00
2023-01-07T03:25:06.072Z,0.00
2023-01-07T03:26:06.061Z,0.00
2023-01-07T03:27:06.039Z,0.00
2023-01-07T03:28:06.042Z,0.00
2023-01-07T03:29:05.989Z,0.00
2023-01-07T03:30:06.025Z,0.00
2023-01-07T03:31:05.978Z,0.00
2023-01-07T03:32:06.068Z,0.00
2023-01-07T03:33:05.956Z,0.00
2023-01-07T03:34:05.963Z,0.00
2023-01-07T03:35:05.965Z,0.00
2023-01-07T03:36:05.950Z,0.00
2023-01-07T03:37:05.910Z,0.00
2023-01-07T03:38:05.892Z,0.00
2023-01-07T03:39:05.877Z,0.00
2023-01-07T03:40:05.914Z,0.00
2023-01-07T03:41:05.889Z,0.00
2023-01-07T03:42:05.891Z,0.00
2023-01-07T03:43:05.872Z,0.00
2023-01-07T03:44:05.841Z,0.00
2023-01-07T03:45:05.871Z,0.00
2023-01-07T03:46:05.903Z,0.00
2023-01-07T03:47:05.805Z,0.00
2023-01-07T03:48:05.798Z,0.00
2023-01-07T03:49:05.776Z,0.00
2023-01-07T03:50:05.800Z,0.00
2023-01-07T03:51:05.761Z,0.00
2023-01-07T03:52:05.733Z,0.00
2023-01-07T03:53:05.728Z,0.00
2023-01-07T03:54:05.723Z,0.00
2023-01-07T03:55:05.744Z,0.00
2023-01-07T03:56:05.685Z,0.00
2023-01-07T03:57:05.712Z,0.00
2023-01-07T03:58:05.685Z,0.00
2023-01-07T03:59:05.663Z,0.00
2023-01-07T04:00:05.691Z,0.00
2023-01-07T04:01:05.740Z,0.00
2023-01-07T04:02:05.936Z,0.00
2023-01-07T04:03:05.631Z,0.00
2023-01-07T04:04:05.700Z,0.00
2023-01-07T04:05:05.631Z,0.00
2023-01-07T04:06:05.579Z,0.00
2023-01-07T04:07:05.570Z,0.00
2023-01-07T04:08:05.546Z,0.00
2023-01-07T04:09:05.527Z,0.00
2023-01-07T04:10:05.509Z,0.00
2023-01-07T04:11:05.568Z,0.00
2023-01-07T04:12:05.519Z,0.00
2023-01-07T04:13:05.499Z,0.00
2023-01-07T04:14:05.511Z,0.00
2023-01-07T04:15:05.492Z,0.00
2023-01-07T04:16:05.521Z,0.00
2023-01-07T04:17:05.459Z,0.00
2023-01-07T04:18:05.455Z,0.00
2023-01-07T04:19:05.441Z,0.00
2023-01-07T04:20:05.448Z,0.00
2023-01-07T04:21:05.440Z,0.00
2023-01-07T04:22:05.385Z,0.00
2023-01-07T04:23:05.394Z,0.00
2023-01-07T04:24:05.379Z,0.00
2023-01-07T04:25:05.375Z,0.00
2023-01-07T04:26:05.464Z,0.00
2023-01-07T04:27:05.383Z,0.00
2023-01-07T04:28:05.364Z,0.00
2023-01-07T04:29:05.335Z,0.00
2023-01-07T04:30:05.353Z,0.00
2023-01-07T04:31:05.392Z,0.00
2023-01-07T04:32:05.300Z,0.00
2023-01-07T04:33:05.288Z,0.00
2023-01-07T04:34:05.288Z,0.00
2023-01-07T04:35:05.266Z,0.00
2023-01-07T04:36:05.278Z,0.00
2023-01-07T04:37:05.264Z,0.00
2023-01-07T04:38:05.230Z,0.00
2023-01-07T04:39:05.195Z,0.00
2023-01-07T04:40:05.193Z,0.00
2023-01-07T04:41:05.243Z,0.00
2023-01-07T04:42:05.168Z,0.00
2023-01-07T04:43:05.179Z,0.00
2023-01-07T04:44:05.167Z,0.00
2023-01-07T04:45:05.161Z,0.00
2023-01-07T04:46:05.216Z,0.00
2023-01-07T04:47:05.132Z,0.00
2023-01-07T04:48:05.116Z,0.00
2023-01-07T04:49:05.116Z,0.00
2023-01-07T04:50:05.108Z,0.00
2023-01-07T04:51:05.108Z,0.00
2023-01-07T04:52:05.061Z,0.00
2023-01-07T04:53:05.061Z,0.00
2023-01-07T04:54:05.051Z,0.00
2023-01-07T04:55:05.035Z,0.00
2023-01-07T04:56:05.063Z,0.00
2023-01-07T04:57:05.028Z,0.00
2023-01-07T04:58:05.012Z,0.00
2023-01-07T04:59:04.984Z,0.00
2023-01-07T05:00:04.984Z,0.00
2023-01-07T05:01:05.124Z,0.00
2023-01-07T05:02:05.100Z,0.00
2023-01-07T05:03:04.962Z,0.00
2023-01-07T05:04:04.946Z,0.00
2023-01-07T05:05:04.919Z,0.00
2023-01-07T05:06:04.966Z,0.00
2023-01-07T05:07:04.939Z,0.00
2023-01-07T05:08:04.891Z,0.00
2023-01-07T05:09:04.888Z,0.00
2023-01-07T05:10:04.864Z,0.00
2023-01-07T05:11:04.883Z,0.00
2023-01-07T05:12:04.849Z,0.00
2023-01-07T05:13:06.714Z,0.00
2023-01-07T05:14:04.882Z,0.00
2023-01-07T05:15:04.839Z,0.00
2023-01-07T05:16:04.865Z,0.00
2023-01-07T05:17:04.851Z,0.00
2023-01-07T05:18:04.766Z,0.00
2023-01-07T05:19:04.780Z,0.00
2023-01-07T05:20:04.754Z,0.00
2023-01-07T05:21:04.781Z,0.00
2023-01-07T05:22:04.745Z,0.00
2023-01-07T05:23:04.740Z,0.00
2023-01-07T05:24:04.716Z,0.00
2023-01-07T05:25:04.709Z,0.00
2023-01-07T05:26:04.743Z,0.00
2023-01-07T05:27:04.701Z,0.00
2023-01-07T05:28:04.663Z,0.00
2023-01-07T05:29:04.683Z,0.00
2023-01-07T05:30:04.656Z,0.00
2023-01-07T05:31:04.741Z,0.00
2023-01-07T05:32:04.627Z,0.00
2023-01-07T05:33:04.616Z,0.00
2023-01-07T05:34:04.615Z,0.00
2023-01-07T05:35:04.604Z,0.00
2023-01-07T05:36:04.607Z,0.00
2023-01-07T05:37:04.573Z,0.00
2023-01-07T05:38:04.584Z,0.00
2023-01-07T05:39:04.545Z,0.00
2023-01-07T05:40:04.542Z,0.00
2023-01-07T05:41:04.549Z,0.00
2023-01-07T05:42:04.517Z,0.00
2023-01-07T05:43:04.527Z,0.00
2023-01-07T05:44:04.491Z,0.00
2023-01-07T05:45:04.491Z,0.00
2023-01-07T05:46:04.538Z,0.00
2023-01-07T05:47:04.483Z,0.00
2023-01-07T05:48:04.454Z,0.00
2023-01-07T05:49:04.434Z,0.00
2023-01-07T05:50:04.428Z,0.00
2023-01-07T05:51:04.477Z,0.00
2023-01-07T05:52:04.427Z,0.00
2023-01-07T05:53:04.408Z,0.00
2023-01-07T05:54:04.403Z,0.00
2023-01-07T05:55:04.373Z,0.00
2023-01-07T05:56:04.406Z,0.00
2023-01-07T05:57:04.366Z,0.00
2023-01-07T05:58:04.335Z,0.00
2023-01-07T05:59:04.350Z,0.00
2023-01-07T06:00:04.369Z,0.00
2023-01-07T06:01:04.402Z,0.00
2023-01-07T06:02:04.294Z,0.00
2023-01-07T06:03:04.320Z,0.00
2023-01-07T06:04:04.273Z,0.00
2023-01-07T06:05:04.350Z,0.00
2023-01-07T06:06:04.310Z,0.00
2023-01-07T06:07:04.255Z,0.00
2023-01-07T06:08:04.239Z,0.00
2023-01-07T06:09:04.234Z,0.00
2023-01-07T06:10:04.204Z,0.00
2023-01-07T06:11:04.233Z,0.00
2023-01-07T06:12:04.182Z,0.00
2023-01-07T06:13:04.190Z,0.00
2023-01-07T06:14:04.166Z,0.00
2023-01-07T06:15:04.153Z,0.00
2023-01-07T06:16:04.210Z,0.00
2023-01-07T06:17:04.138Z,0.00
2023-01-07T06:18:04.139Z,0.00
2023-01-07T06:19:04.128Z,0.00
2023-01-07T06:20:04.088Z,0.00
2023-01-07T06:21:04.121Z,0.00
2023-01-07T06:22:04.069Z,0.00
2023-01-07T06:23:04.073Z,0.00
2023-01-07T06:24:04.053Z,0.00
2023-01-07T06:25:04.057Z,0.00
2023-01-07T06:26:04.087Z,0.00
2023-01-07T06:27:04.023Z,0.00
2023-01-07T06:28:04.001Z,0.00
2023-01-07T06:29:03.993Z,0.00
2023-01-07T06:30:03.996Z,0.00
2023-01-07T06:31:04.052Z,0.00
2023-01-07T06:32:03.976Z,0.00
2023-01-07T06:33:03.942Z,0.00
2023-01-07T06:34:03.964Z,0.00
2023-01-07T06:35:03.938Z,0.00
2023-01-07T06:36:03.952Z,0.00
2023-01-07T06:37:03.900Z,0.00
2023-01-07T06:38:03.919Z,0.00
2023-01-07T06:39:03.890Z,0.00
2023-01-07T06:40:03.855Z,0.00
2023-01-07T06:41:03.900Z,0.00
2023-01-07T06:42:03.847Z,0.00
2023-01-07T06:43:03.826Z,0.00
2023-01-07T06:44:03.825Z,0.00
2023-01-07T06:45:03.823Z,0.00
2023-01-07T06:46:03.874Z,0.00
2023-01-07T06:47:03.823Z,0.00
2023-01-07T06:48:03.785Z,0.00
2023-01-07T06:49:03.780Z,0.00
2023-01-07T06:50:03.742Z,0.00
2023-01-07T06:51:03.744Z,0.00
2023-01-07T06:52:03.774Z,0.00
2023-01-07T06:53:03.729Z,0.00
2023-01-07T06:54:03.714Z,0.00
2023-01-07T06:55:03.704Z,5.62
2023-01-07T06:56:03.687Z,5.62
2023-01-07T06:57:03.720Z,5.62
2023-01-07T06:58:03.668Z,5.62
2023-01-07T06:59:03.665Z,5.62
2023-01-07T07:00:03.640Z,5.62
2023-01-07T07:01:03.720Z,5.62
2023-01-07T07:02:03.752Z,11.25
2023-01-07T07:03:03.676Z,11.25
2023-01-07T07:04:03.594Z,11.25
2023-01-07T07:05:03.583Z,11.25
2023-01-07T07:06:03.572Z,11.25
2023-01-07T07:07:03.592Z,11.25
2023-01-07T07:08:03.575Z,11.25
2023-01-07T07:09:03.547Z,11.25
2023-01-07T07:10:03.536Z,11.25
2023-01-07T07:11:03.526Z,11.25
2023-01-07T07:12:03.542Z,5.62
2023-01-07T07:13:03.479Z,5.62
2023-01-07T07:14:03.478Z,5.62
2023-01-07T07:15:03.481Z,5.62
2023-01-07T07:16:03.520Z,5.62
2023-01-07T07:17:03.502Z,11.25
2023-01-07T07:18:03.453Z,11.25
2023-01-07T07:19:03.443Z,11.25
2023-01-07T07:20:03.416Z,11.25
2023-01-07T07:21:03.399Z,16.88
2023-01-07T07:22:04.748Z,16.88
2023-01-07T07:23:03.403Z,16.88
2023-01-07T07:24:03.392Z,16.88
2023-01-07T07:25:03.376Z,16.88
2023-01-07T07:26:03.333Z,22.50
2023-01-07T07:27:03.394Z,22.50
2023-01-07T07:28:03.320Z,28.12
2023-01-07T07:29:03.327Z,33.75
2023-01-07T07:30:03.305Z,39.38
2023-01-07T07:31:03.316Z,45.00
2023-01-07T07:32:03.336Z,50.62
2023-01-07T07:33:03.278Z,50.62
2023-01-07T07:34:03.252Z,50.62
2023-01-07T07:35:03.261Z,50.62
2023-01-07T07:36:03.241Z,50.62
2023-01-07T07:37:03.263Z,50.62
2023-01-07T07:38:03.220Z,50.62
2023-01-07T07:39:03.208Z,56.25
2023-01-07T07:40:03.201Z,61.88
2023-01-07T07:41:03.171Z,61.88
2023-01-07T07:42:03.206Z,61.88
2023-01-07T07:43:11.715Z,67.50
2023-01-07T07:44:04.147Z,73.12
2023-01-07T07:45:03.176Z,84.38
2023-01-07T07:46:03.113Z,95.62
2023-01-07T07:47:03.157Z,101.25
2023-01-07T07:48:03.089Z,112.50
2023-01-07T07:49:03.097Z,118.12
2023-01-07T07:50:03.088Z,123.75
2023-01-07T07:51:03.072Z,123.75
2023-01-07T07:52:03.075Z,135.00
2023-01-07T07:53:03.036Z,140.62
2023-01-07T07:54:03.024Z,146.25
2023-01-07T07:55:20.436Z,157.50
2023-01-07T07:56:03.991Z,168.75
2023-01-07T07:57:03.021Z,180.00
2023-01-07T07:58:02.980Z,191.25
2023-01-07T07:59:02.979Z,196.88
2023-01-07T08:00:02.965Z,202.50
2023-01-07T08:01:03.020Z,213.75
2023-01-07T08:02:03.063Z,219.38
2023-01-07T08:03:02.985Z,225.00
2023-01-07T08:04:02.934Z,230.62
2023-01-07T08:05:02.893Z,230.62
2023-01-07T08:06:02.882Z,236.25
2023-01-07T08:07:02.881Z,236.25
2023-01-07T08:08:02.927Z,236.25
2023-01-07T08:09:02.852Z,241.88
2023-01-07T08:10:02.876Z,247.50
2023-01-07T08:11:02.848Z,258.75
2023-01-07T08:12:02.850Z,275.62
2023-01-07T08:13:02.872Z,292.50
2023-01-07T08:14:02.843Z,309.38
2023-01-07T08:15:02.810Z,320.62
2023-01-07T08:16:02.817Z,326.25
2023-01-07T08:17:02.800Z,331.88
2023-01-07T08:18:02.815Z,337.50
2023-01-07T08:19:02.756Z,348.75
2023-01-07T08:20:02.745Z,360.00
2023-01-07T08:21:02.758Z,371.25
2023-01-07T08:22:02.723Z,382.50
2023-01-07T08:23:02.747Z,399.38
2023-01-07T08:24:02.715Z,405.00
2023-01-07T08:25:02.681Z,405.00
2023-01-07T08:26:02.709Z,405.00
2023-01-07T08:27:02.660Z,405.00
2023-01-07T08:28:02.699Z,399.38
2023-01-07T08:29:02.643Z,399.38
2023-01-07T08:30:02.624Z,399.38
2023-01-07T08:31:02.679Z,393.75
2023-01-07T08:32:02.608Z,399.38
2023-01-07T08:33:02.609Z,410.62
2023-01-07T08:34:02.589Z,416.25
2023-01-07T08:35:02.583Z,421.88
2023-01-07T08:36:06.949Z,421.88
2023-01-07T08:37:02.540Z,421.88
2023-01-07T08:38:02.582Z,421.88
2023-01-07T08:39:02.532Z,405.00
2023-01-07T08:40:04.663Z,399.38
2023-01-07T08:41:02.500Z,399.38
2023-01-07T08:42:02.513Z,433.12
2023-01-07T08:43:02.532Z,427.50
2023-01-07T08:44:02.474Z,438.75
2023-01-07T08:45:02.460Z,399.38
2023-01-07T08:46:02.442Z,388.12
2023-01-07T08:47:02.472Z,371.25
2023-01-07T08:48:02.468Z,354.38
2023-01-07T08:49:02.420Z,348.75
2023-01-07T08:50:02.400Z,348.75
2023-01-07T08:51:02.384Z,354.38
2023-01-07T08:52:02.378Z,348.75
2023-01-07T08:53:02.416Z,354.38
2023-01-07T08:54:02.343Z,343.12
2023-01-07T08:55:02.363Z,348.75
2023-01-07T08:56:02.359Z,337.50
2023-01-07T08:57:02.348Z,326.25
2023-01-07T08:58:02.341Z,348.75
2023-01-07T08:59:02.275Z,354.38
2023-01-07T09:00:02.308Z,360.00
2023-01-07T09:01:02.390Z,405.00
2023-01-07T09:02:02.337Z,478.12
2023-01-07T09:03:02.297Z,601.88
2023-01-07T09:04:02.241Z,708.75
2023-01-07T09:05:02.237Z,787.50
2023-01-07T09:06:02.222Z,798.75
2023-01-07T09:07:02.196Z,753.75
2023-01-07T09:08:02.238Z,697.50
2023-01-07T09:09:02.179Z,675.00
2023-01-07T09:10:02.196Z,658.12
2023-01-07T09:11:02.176Z,585.00
2023-01-07T09:12:02.176Z,573.75
2023-01-07T09:13:02.179Z,551.25
2023-01-07T09:14:02.131Z,506.25
2023-01-07T09:15:02.102Z,450.00
2023-01-07T09:16:02.129Z,461.25
2023-01-07T09:17:02.085Z,472.50
2023-01-07T09:18:02.131Z,500.62
2023-01-07T09:19:02.082Z,517.50
2023-01-07T09:20:02.083Z,506.25
2023-01-07T09:21:02.064Z,500.62
2023-01-07T09:22:02.064Z,506.25
2023-01-07T09:23:02.085Z,523.12
2023-01-07T09:24:02.046Z,540.00
2023-01-07T09:25:01.994Z,545.62
2023-01-07T09:26:02.016Z,545.62
2023-01-07T09:27:02.002Z,545.62
2023-01-07T09:28:01.992Z,534.38
2023-01-07T09:29:02.009Z,517.50
2023-01-07T09:30:01.967Z,483.75
2023-01-07T09:31:01.949Z,472.50
2023-01-07T09:32:01.916Z,461.25
2023-01-07T09:33:01.941Z,455.62
2023-01-07T09:34:01.951Z,455.62
2023-01-07T09:35:01.892Z,444.38
2023-01-07T09:36:01.905Z,450.00
2023-01-07T09:37:01.867Z,450.00
2023-01-07T09:38:01.862Z,421.88
2023-01-07T09:39:01.874Z,399.38
2023-01-07T09:40:01.845Z,337.50
2023-01-07T09:41:01.833Z,315.00
2023-01-07T09:42:01.813Z,309.38
2023-01-07T09:43:01.840Z,315.00
2023-01-07T09:44:02.107Z,331.88
2023-01-07T09:45:01.778Z,326.25
2023-01-07T09:46:01.835Z,354.38
2023-01-07T09:47:01.743Z,376.88
2023-01-07T09:48:01.740Z,421.88
2023-01-07T09:49:01.773Z,444.38
2023-01-07T09:50:01.718Z,461.25
2023-01-07T09:51:01.732Z,489.38
2023-01-07T09:52:01.714Z,495.00
2023-01-07T09:53:01.680Z,483.75
2023-01-07T09:54:01.719Z,461.25
2023-01-07T09:55:01.675Z,455.62
2023-01-07T09:56:10.687Z,461.25
2023-01-07T09:57:02.648Z,472.50
2023-01-07T09:58:01.652Z,489.38
2023-01-07T09:59:01.675Z,506.25
2023-01-07T10:00:01.622Z,517.50
2023-01-07T10:01:01.668Z,517.50
2023-01-07T10:02:01.607Z,511.88
2023-01-07T10:03:01.573Z,500.62
2023-01-07T10:04:01.647Z,500.62
2023-01-07T10:05:01.556Z,517.50
2023-01-07T10:06:01.555Z,534.38
2023-01-07T10:07:01.535Z,551.25
2023-01-07T10:08:30.084Z,579.38
2023-01-07T10:09:02.539Z,596.25
2023-01-07T10:10:01.508Z,613.12
2023-01-07T10:11:01.512Z,641.25
2023-01-07T10:12:01.476Z,658.12
2023-01-07T10:13:01.456Z,652.50
2023-01-07T10:14:01.475Z,652.50
2023-01-07T10:15:01.481Z,658.12
2023-01-07T10:16:01.474Z,607.50
2023-01-07T10:17:01.402Z,556.88
2023-01-07T10:18:01.396Z,511.88
2023-01-07T10:19:01.397Z,461.25
2023-01-07T10:20:01.449Z,438.75
2023-01-07T10:21:01.370Z,523.12
2023-01-07T10:22:01.366Z,590.62
2023-01-07T10:23:01.350Z,590.62
2023-01-07T10:24:01.334Z,534.38
2023-01-07T10:25:01.361Z,652.50
2023-01-07T10:26:01.342Z,652.50
2023-01-07T10:27:01.291Z,568.12
2023-01-07T10:28:01.293Z,658.12
2023-01-07T10:29:01.276Z,742.50
2023-01-07T10:30:01.328Z,826.88
2023-01-07T10:31:01.257Z,911.25
2023-01-07T10:32:01.317Z,832.50
2023-01-07T10:33:01.252Z,866.25
2023-01-07T10:34:01.232Z,815.62
2023-01-07T10:35:01.288Z,540.00
2023-01-07T10:36:01.216Z,596.25
2023-01-07T10:37:01.207Z,770.62
2023-01-07T10:38:01.195Z,855.00
2023-01-07T10:39:01.185Z,832.50
2023-01-07T10:40:01.192Z,815.62
2023-01-07T10:41:01.148Z,1119.38
2023-01-07T10:42:01.141Z,1220.62
2023-01-07T10:43:01.116Z,1068.75
2023-01-07T10:44:01.126Z,961.88
2023-01-07T10:45:01.163Z,1018.12
2023-01-07T10:46:01.180Z,888.75
2023-01-07T10:47:01.076Z,753.75
2023-01-07T10:48:01.057Z,933.75
2023-01-07T10:49:01.068Z,1158.75
2023-01-07T10:50:01.105Z,1192.50
2023-01-07T10:51:01.081Z,1209.38
2023-01-07T10:52:01.022Z,1282.50
2023-01-07T10:53:01.023Z,956.25
2023-01-07T10:54:00.997Z,928.12
2023-01-07T10:55:00.997Z,1209.38
2023-01-07T10:56:01.021Z,1350.00
2023-01-07T10:57:00.953Z,1046.25
2023-01-07T10:58:00.957Z,1006.88
2023-01-07T10:59:00.925Z,748.12
2023-01-07T11:00:00.945Z,624.38
2023-01-07T11:01:01.117Z,630.00
2023-01-07T11:02:01.178Z,776.25
2023-01-07T11:03:01.008Z,1170.00
2023-01-07T11:04:00.880Z,1260.00
2023-01-07T11:05:00.880Z,1203.75
2023-01-07T11:06:00.905Z,1181.25
2023-01-07T11:07:00.857Z,1400.62
2023-01-07T11:08:00.832Z,1428.75
2023-01-07T11:09:00.837Z,1383.75
2023-01-07T11:10:00.826Z,1243.12
2023-01-07T11:11:00.840Z,945.00
2023-01-07T11:12:00.799Z,1012.50
2023-01-07T11:13:00.770Z,1147.50
2023-01-07T11:14:00.782Z,1231.88
2023-01-07T11:15:00.809Z,1192.50
2023-01-07T11:16:00.776Z,1620.00
2023-01-07T11:17:00.735Z,1299.38
2023-01-07T11:18:00.722Z,1445.62
2023-01-07T11:19:00.715Z,1198.12
2023-01-07T11:20:00.721Z,1085.62
2023-01-07T11:21:00.731Z,1001.25
2023-01-07T11:22:00.667Z,1080.00
2023-01-07T11:23:00.688Z,1372.50
2023-01-07T11:24:00.674Z,1411.88
2023-01-07T11:25:00.660Z,1215.00
2023-01-07T11:26:00.646Z,1170.00
2023-01-07T11:27:00.610Z,1113.75
2023-01-07T11:28:00.614Z,1147.50
2023-01-07T11:29:00.585Z,1046.25
2023-01-07T11:30:00.613Z,967.50
2023-01-07T11:31:00.633Z,888.75
2023-01-07T11:32:00.683Z,911.25
2023-01-07T11:33:00.559Z,933.75
2023-01-07T11:34:02.157Z,916.88
2023-01-07T11:35:00.527Z,888.75
2023-01-07T11:36:00.572Z,978.75
2023-01-07T11:37:00.493Z,1006.88
2023-01-07T11:38:00.513Z,877.50
2023-01-07T11:39:00.474Z,826.88
2023-01-07T11:40:00.492Z,787.50
2023-01-07T11:41:00.822Z,793.12
2023-01-07T11:42:00.452Z,815.62
2023-01-07T11:43:00.428Z,781.88
2023-01-07T11:44:00.423Z,720.00
2023-01-07T11:45:00.444Z,720.00
2023-01-07T11:46:19.086Z,714.38
2023-01-07T11:47:01.414Z,860.62
2023-01-07T11:48:00.376Z,1181.25
2023-01-07T11:49:00.383Z,765.00
2023-01-07T11:50:00.359Z,691.88
2023-01-07T11:51:00.393Z,838.12
2023-01-07T11:52:00.339Z,1080.00
2023-01-07T11:53:00.336Z,866.25
2023-01-07T11:54:00.328Z,916.88
2023-01-07T11:55:00.285Z,748.12
2023-01-07T11:56:00.326Z,877.50
2023-01-07T11:57:00.278Z,1113.75
2023-01-07T11:58:28.809Z,1237.50
2023-01-07T11:59:01.270Z,1203.75
2023-01-07T12:00:00.253Z,1254.38
2023-01-07T12:01:00.313Z,1265.62
2023-01-07T12:02:00.291Z,1237.50
2023-01-07T12:03:00.221Z,1198.12
2023-01-07T12:04:00.195Z,1136.25
2023-01-07T12:05:00.199Z,1074.38
2023-01-07T12:06:00.372Z,1068.75
2023-01-07T12:07:00.174Z,725.62
2023-01-07T12:08:00.162Z,894.38
2023-01-07T12:09:00.132Z,1119.38
2023-01-07T12:10:00.141Z,967.50
2023-01-07T12:11:00.152Z,613.12
2023-01-07T12:12:00.104Z,500.62
2023-01-07T12:13:00.113Z,500.62
2023-01-07T12:14:00.119Z,551.25
2023-01-07T12:15:00.087Z,545.62
2023-01-07T12:16:00.164Z,534.38
2023-01-07T12:17:00.046Z,545.62
2023-01-07T12:18:00.047Z,573.75
2023-01-07T12:19:00.049Z,568.12
2023-01-07T12:20:00.033Z,483.75
2023-01-07T12:21:00.080Z,714.38
2023-01-07T12:22:00.031Z,573.75
2023-01-07T12:22:59.991Z,607.50
2023-01-07T12:23:59.998Z,843.75
2023-01-07T12:24:59.959Z,635.62
2023-01-07T12:26:00.032Z,618.75
2023-01-07T12:26:59.964Z,607.50
2023-01-07T12:27:59.928Z,618.75
2023-01-07T12:28:59.924Z,635.62
2023-01-07T12:29:59.887Z,686.25
2023-01-07T12:30:59.935Z,714.38
2023-01-07T12:31:59.885Z,765.00
2023-01-07T12:32:59.885Z,776.25
2023-01-07T12:33:59.872Z,753.75
2023-01-07T12:35:14.207Z,781.88
2023-01-07T12:36:00.876Z,725.62
2023-01-07T12:36:59.809Z,871.88
2023-01-07T12:37:59.810Z,1046.25
2023-01-07T12:38:59.789Z,1265.62
2023-01-07T12:39:59.817Z,1468.12
2023-01-07T12:40:59.765Z,1288.12
2023-01-07T12:41:59.810Z,939.38
2023-01-07T12:42:59.770Z,1355.62
2023-01-07T12:43:59.765Z,1350.00
2023-01-07T12:44:59.761Z,1355.62
2023-01-07T12:45:59.859Z,1406.25
2023-01-07T12:47:29.907Z,1541.25
2023-01-07T12:48:00.678Z,1057.50
2023-01-07T12:48:59.697Z,900.00
2023-01-07T12:49:59.709Z,624.38
2023-01-07T12:50:59.686Z,590.62
2023-01-07T12:51:59.702Z,556.88
2023-01-07T12:52:59.653Z,545.62
2023-01-07T12:53:59.632Z,556.88